Time,TemperatureF,DewpointF,PressureIn,WindDirection,WindDirectionDegrees,WindSpeedMPH,WindSpeedGustMPH,Humidity,HourlyPrecipIn,Conditions,Clouds,dailyrainin,SoftwareType,DateUTC
2014-10-20 00:00:00,48.7,43.8,30.10,NNW,347,0.0,0.0,83,0.00,,,0.00,Wunderground v.1.15,2014-10-20 04:00:00,
2014-10-20 00:05:00,48.7,44.1,30.10,NNW,347,0.0,0.0,84,0.00,,,0.00,Wunderground v.1.15,2014-10-20 04:05:00,
2014-10-20 00:15:00,48.7,44.1,30.10,NNW,347,0.0,0.0,84,0.00,,,0.00,Wunderground v.1.15,2014-10-20 04:15:00,
2014-10-20 00:25:00,48.9,44.3,30.10,NNW,347,0.0,0.0,84,0.00,,,0.00,Wunderground v.1.15,2014-10-20 04:25:00,
2014-10-20 00:35:00,48.8,43.9,30.09,NNW,347,0.0,0.0,83,0.00,,,0.00,Wunderground v.1.15,2014-10-20 04:35:00,
2014-10-20 00:45:00,48.6,44.3,30.09,NNW,347,0.0,0.0,85,0.00,,,0.00,Wunderground v.1.15,2014-10-20 04:45:00,
2014-10-20 00:50:00,48.7,44.7,30.08,NNW,347,0.0,0.0,86,0.00,,,0.00,Wunderground v.1.15,2014-10-20 04:50:00,
2014-10-20 00:55:00,48.8,44.8,30.08,NNW,347,0.0,0.0,86,0.00,,,0.00,Wunderground v.1.15,2014-10-20 04:55:00,
2014-10-20 01:00:00,48.9,44.9,30.08,NNW,347,0.0,0.0,86,0.00,,,0.00,Wunderground v.1.15,2014-10-20 05:00:00,
2014-10-20 01:05:00,48.8,44.8,30.08,NNW,347,0.0,0.0,86,0.00,,,0.00,Wunderground v.1.15,2014-10-20 05:05:00,
2014-10-20 01:15:00,48.5,44.5,30.08,NNW,347,0.0,0.0,86,0.00,,,0.00,Wunderground v.1.15,2014-10-20 05:15:00,
2014-10-20 01:25:00,47.0,43.0,30.08,NNW,347,0.0,0.0,86,0.00,,,0.00,Wunderground v.1.15,2014-10-20 05:25:00,
2014-10-20 01:35:00,45.4,42.1,30.08,NNW,347,0.0,0.0,88,0.00,,,0.00,Wunderground v.1.15,2014-10-20 05:35:00,
2014-10-20 01:40:00,45.0,42.0,30.08,NNW,347,0.0,0.0,89,0.00,,,0.00,Wunderground v.1.15,2014-10-20 05:40:00,
2014-10-20 01:50:00,44.6,41.8,30.08,NNW,347,0.0,0.0,90,0.00,,,0.00,Wunderground v.1.15,2014-10-20 05:50:00,
2014-10-20 02:00:00,44.4,41.9,30.08,NNW,347,0.0,0.0,91,0.00,,,0.00,Wunderground v.1.15,2014-10-20 06:00:00,
2014-10-20 02:05:00,44.3,41.8,30.08,NNW,347,0.0,0.0,91,0.00,,,0.00,Wunderground v.1.15,2014-10-20 06:05:00,
2014-10-20 02:15:00,44.0,41.8,30.09,NNW,347,0.0,0.0,92,0.00,,,0.00,Wunderground v.1.15,2014-10-20 06:15:00,
2014-10-20 02:25:00,43.9,42.0,30.08,NNW,347,0.0,0.0,93,0.00,,,0.00,Wunderground v.1.15,2014-10-20 06:25:00,
2014-10-20 02:35:00,43.8,42.2,30.09,NNW,347,0.0,0.0,94,0.00,,,0.00,Wunderground v.1.15,2014-10-20 06:35:00,
2014-10-20 02:45:00,43.6,42.0,30.09,NNW,347,0.0,0.0,94,0.00,,,0.00,Wunderground v.1.15,2014-10-20 06:45:00,
2014-10-20 02:55:00,43.4,41.8,30.09,NNW,347,0.0,0.0,94,0.00,,,0.00,Wunderground v.1.15,2014-10-20 06:55:00,
2014-10-20 03:05:00,43.6,42.0,30.09,NNW,347,0.0,0.0,94,0.00,,,0.00,Wunderground v.1.15,2014-10-20 07:05:00,
2014-10-20 03:15:00,43.7,42.1,30.09,NNW,347,0.0,0.0,94,0.00,,,0.00,Wunderground v.1.15,2014-10-20 07:15:00,
2014-10-20 03:25:00,43.6,42.0,30.08,NNW,347,0.0,0.0,94,0.00,,,0.00,Wunderground v.1.15,2014-10-20 07:25:00,
2014-10-20 03:35:00,43.7,42.1,30.09,NNW,347,0.0,0.0,94,0.00,,,0.00,Wunderground v.1.15,2014-10-20 07:35:00,
2014-10-20 03:45:00,43.5,41.9,30.09,NNW,347,0.0,0.0,94,0.00,,,0.00,Wunderground v.1.15,2014-10-20 07:45:00,
2014-10-20 03:55:00,44.9,43.8,30.09,NNW,347,0.0,0.0,96,0.00,,,0.00,Wunderground v.1.15,2014-10-20 07:55:00,
2014-10-20 04:05:00,46.1,44.5,30.08,NNW,347,0.0,0.0,94,0.00,,,0.00,Wunderground v.1.15,2014-10-20 08:05:00,
2014-10-20 04:15:00,45.2,42.7,30.08,NNW,347,0.0,0.0,91,0.00,,,0.00,Wunderground v.1.15,2014-10-20 08:15:00,
2014-10-20 04:25:00,44.7,42.8,30.08,NNW,347,0.0,0.0,93,0.00,,,0.00,Wunderground v.1.15,2014-10-20 08:25:00,
2014-10-20 04:35:00,44.8,42.9,30.08,NNW,347,0.0,0.0,93,0.00,,,0.00,Wunderground v.1.15,2014-10-20 08:35:00,
2014-10-20 04:40:00,45.0,43.4,30.08,NNW,347,0.0,0.0,94,0.00,,,0.00,Wunderground v.1.15,2014-10-20 08:40:00,
2014-10-20 04:50:00,47.5,45.6,30.07,South,182,0.0,0.0,93,0.00,,,0.00,Wunderground v.1.15,2014-10-20 08:50:00,
2014-10-20 05:00:00,48.6,45.5,30.07,South,188,0.0,0.0,89,0.00,,,0.00,Wunderground v.1.15,2014-10-20 09:00:00,
2014-10-20 05:05:00,48.6,45.2,30.07,South,188,0.0,0.0,88,0.00,,,0.00,Wunderground v.1.15,2014-10-20 09:05:00,
2014-10-20 05:15:00,48.2,44.5,30.07,South,188,0.0,0.0,87,0.00,,,0.00,Wunderground v.1.15,2014-10-20 09:15:00,
2014-10-20 05:25:00,46.7,43.3,30.07,South,188,0.0,0.0,88,0.00,,,0.00,Wunderground v.1.15,2014-10-20 09:25:00,
2014-10-20 05:35:00,45.6,43.1,30.08,South,188,0.0,0.0,91,0.00,,,0.00,Wunderground v.1.15,2014-10-20 09:35:00,
2014-10-20 05:40:00,45.2,43.0,30.08,South,188,0.0,0.0,92,0.00,,,0.00,Wunderground v.1.15,2014-10-20 09:40:00,
2014-10-20 05:50:00,45.0,43.1,30.08,South,188,0.0,0.0,93,0.00,,,0.00,Wunderground v.1.15,2014-10-20 09:50:00,
2014-10-20 06:00:00,45.1,43.5,30.08,South,188,0.0,0.0,94,0.00,,,0.00,Wunderground v.1.15,2014-10-20 10:00:00,
2014-10-20 06:05:00,45.3,43.7,30.08,South,188,0.0,0.0,94,0.00,,,0.00,Wunderground v.1.15,2014-10-20 10:05:00,
2014-10-20 06:10:00,46.2,44.8,30.08,South,188,0.0,0.0,95,0.00,,,0.00,Wunderground v.1.15,2014-10-20 10:10:00,
2014-10-20 06:20:00,48.0,45.8,30.08,South,188,0.0,0.0,92,0.00,,,0.00,Wunderground v.1.15,2014-10-20 10:20:00,
2014-10-20 06:30:00,49.0,45.9,30.08,SW,217,0.0,0.0,89,0.00,,,0.00,Wunderground v.1.15,2014-10-20 10:30:00,
2014-10-20 06:35:00,49.2,45.8,30.08,SW,217,0.0,0.0,88,0.00,,,0.00,Wunderground v.1.15,2014-10-20 10:35:00,
2014-10-20 06:45:00,49.3,45.6,30.07,SW,217,0.0,0.0,87,0.00,,,0.00,Wunderground v.1.15,2014-10-20 10:45:00,
2014-10-20 06:55:00,49.1,45.4,30.07,SW,217,0.0,0.0,87,0.00,,,0.00,Wunderground v.1.15,2014-10-20 10:55:00,
2014-10-20 07:05:00,48.7,45.0,30.07,WNW,297,0.0,0.0,87,0.00,,,0.00,Wunderground v.1.15,2014-10-20 11:05:00,
2014-10-20 07:15:00,48.2,44.8,30.08,WNW,297,0.0,0.0,88,0.00,,,0.00,Wunderground v.1.15,2014-10-20 11:15:00,
2014-10-20 07:25:00,46.8,43.4,30.08,WNW,297,0.0,0.0,88,0.00,,,0.00,Wunderground v.1.15,2014-10-20 11:25:00,
2014-10-20 07:35:00,45.2,42.7,30.07,WNW,297,0.0,0.0,91,0.00,,,0.00,Wunderground v.1.15,2014-10-20 11:35:00,
2014-10-20 07:45:00,44.2,42.3,30.07,WNW,297,0.0,0.0,93,0.00,,,0.00,Wunderground v.1.15,2014-10-20 11:45:00,
2014-10-20 07:50:00,44.2,42.6,30.07,WNW,297,0.0,0.0,94,0.00,,,0.00,Wunderground v.1.15,2014-10-20 11:50:00,
2014-10-20 07:55:00,45.0,43.4,30.07,WNW,296,0.0,0.0,94,0.00,,,0.00,Wunderground v.1.15,2014-10-20 11:55:00,
2014-10-20 08:05:00,45.8,43.9,30.07,WNW,294,0.0,0.0,93,0.00,,,0.00,Wunderground v.1.15,2014-10-20 12:05:00,
2014-10-20 08:15:00,45.6,43.4,30.08,WNW,293,0.0,0.0,92,0.00,,,0.00,Wunderground v.1.15,2014-10-20 12:15:00,
2014-10-20 08:25:00,45.3,43.4,30.08,WNW,293,0.0,0.0,93,0.00,,,0.00,Wunderground v.1.15,2014-10-20 12:25:00,
2014-10-20 08:35:00,45.2,43.6,30.08,WNW,293,0.0,0.0,94,0.00,,,0.00,Wunderground v.1.15,2014-10-20 12:35:00,
2014-10-20 08:45:00,45.3,43.7,30.08,WNW,293,0.0,0.0,94,0.00,,,0.00,Wunderground v.1.15,2014-10-20 12:45:00,
2014-10-20 08:55:00,45.5,43.9,30.08,WNW,293,0.0,0.0,94,0.00,,,0.00,Wunderground v.1.15,2014-10-20 12:55:00,
2014-10-20 09:05:00,45.8,44.2,30.09,WNW,293,0.0,0.0,94,0.00,,,0.00,Wunderground v.1.15,2014-10-20 13:05:00,
2014-10-20 09:15:00,46.1,44.5,30.09,WNW,293,0.0,0.0,94,0.00,,,0.00,Wunderground v.1.15,2014-10-20 13:15:00,
2014-10-20 09:20:00,46.3,44.4,30.09,WNW,293,0.0,0.0,93,0.00,,,0.00,Wunderground v.1.15,2014-10-20 13:20:00,
2014-10-20 09:25:00,46.5,44.6,30.09,WNW,293,0.0,0.0,93,0.00,,,0.00,Wunderground v.1.15,2014-10-20 13:25:00,
2014-10-20 09:35:00,47.0,45.1,30.10,West,275,0.0,0.0,93,0.00,,,0.00,Wunderground v.1.15,2014-10-20 13:35:00,
2014-10-20 09:45:00,48.0,45.8,30.09,SW,215,0.0,0.0,92,0.00,,,0.00,Wunderground v.1.15,2014-10-20 13:45:00,
2014-10-20 09:55:00,49.2,46.4,30.10,SSW,199,1.0,1.0,90,0.00,,,0.00,Wunderground v.1.15,2014-10-20 13:55:00,
2014-10-20 10:05:00,50.0,46.6,30.09,SSW,194,1.0,1.0,88,0.00,,,0.00,Wunderground v.1.15,2014-10-20 14:05:00,
2014-10-20 10:15:00,50.4,46.7,30.09,SSW,194,0.0,0.0,87,0.00,,,0.00,Wunderground v.1.15,2014-10-20 14:15:00,
2014-10-20 10:25:00,50.8,47.1,30.08,SSW,194,0.0,0.0,87,0.00,,,0.00,Wunderground v.1.15,2014-10-20 14:25:00,
2014-10-20 10:35:00,51.2,47.2,30.09,South,191,1.0,4.0,86,0.00,,,0.00,Wunderground v.1.15,2014-10-20 14:35:00,
2014-10-20 10:40:00,51.3,47.3,30.08,SSW,192,1.0,1.0,86,0.00,,,0.00,Wunderground v.1.15,2014-10-20 14:40:00,
2014-10-20 10:45:00,51.6,47.5,30.08,SSW,192,0.0,1.0,86,0.00,,,0.00,Wunderground v.1.15,2014-10-20 14:45:00,
2014-10-20 10:55:00,52.3,47.9,30.08,SW,214,0.0,0.0,85,0.00,,,0.00,Wunderground v.1.15,2014-10-20 14:55:00,
2014-10-20 11:05:00,52.7,47.7,30.08,SSW,213,1.0,1.0,83,0.00,,,0.00,Wunderground v.1.15,2014-10-20 15:05:00,
2014-10-20 11:15:00,53.4,48.0,30.08,SSW,213,0.0,1.0,82,0.00,,,0.00,Wunderground v.1.15,2014-10-20 15:15:00,
2014-10-20 11:25:00,54.1,48.4,30.08,SSW,213,0.0,0.0,81,0.00,,,0.00,Wunderground v.1.15,2014-10-20 15:25:00,
2014-10-20 11:35:00,54.8,48.1,30.08,SSW,211,0.0,0.0,78,0.00,,,0.00,Wunderground v.1.15,2014-10-20 15:35:00,
2014-10-20 11:45:00,55.6,48.5,30.07,SSW,210,0.0,0.0,77,0.00,,,0.00,Wunderground v.1.15,2014-10-20 15:45:00,
2014-10-20 11:55:00,55.9,48.1,30.06,SSW,210,0.0,0.0,75,0.00,,,0.00,Wunderground v.1.15,2014-10-20 15:55:00,
2014-10-20 12:05:00,56.2,46.5,30.06,SSW,210,0.0,0.0,70,0.00,,,0.00,Wunderground v.1.15,2014-10-20 16:05:00,
2014-10-20 12:15:00,56.6,46.5,30.06,SSW,210,0.0,0.0,69,0.00,,,0.00,Wunderground v.1.15,2014-10-20 16:15:00,
2014-10-20 12:25:00,57.7,47.2,30.06,SSW,210,0.0,0.0,68,0.00,,,0.00,Wunderground v.1.15,2014-10-20 16:25:00,
2014-10-20 12:35:00,58.8,46.6,30.05,North,11,0.0,0.0,64,0.00,,,0.00,Wunderground v.1.15,2014-10-20 16:35:00,
2014-10-20 12:45:00,59.0,46.8,30.04,SSW,213,0.0,1.0,64,0.00,,,0.00,Wunderground v.1.15,2014-10-20 16:45:00,
2014-10-20 12:55:00,59.6,46.1,30.03,SSW,207,1.0,4.0,61,0.00,,,0.00,Wunderground v.1.15,2014-10-20 16:55:00,
2014-10-20 13:05:00,60.6,46.6,30.02,SSW,213,1.0,6.0,60,0.00,,,0.00,Wunderground v.1.15,2014-10-20 17:05:00,
2014-10-20 13:15:00,60.5,47.0,30.02,SSW,213,0.0,1.0,61,0.00,,,0.00,Wunderground v.1.15,2014-10-20 17:15:00,
2014-10-20 13:20:00,60.7,45.8,30.01,SSW,209,0.0,0.0,58,0.00,,,0.00,Wunderground v.1.15,2014-10-20 17:20:00,
2014-10-20 13:30:00,60.5,45.6,30.01,SSW,208,0.0,0.0,58,0.00,,,0.00,Wunderground v.1.15,2014-10-20 17:30:00,
2014-10-20 13:35:00,60.8,47.3,30.00,WSW,238,0.0,1.0,61,0.00,,,0.00,Wunderground v.1.15,2014-10-20 17:35:00,
2014-10-20 13:45:00,61.7,47.7,30.00,West,270,0.0,0.0,60,0.00,,,0.00,Wunderground v.1.15,2014-10-20 17:45:00,
2014-10-20 13:55:00,61.9,47.4,30.00,SSW,203,1.0,1.0,59,0.00,,,0.00,Wunderground v.1.15,2014-10-20 17:55:00,
2014-10-20 14:00:00,62.4,49.2,29.99,SSW,198,1.0,1.0,62,0.00,,,0.00,Wunderground v.1.15,2014-10-20 18:00:00,
2014-10-20 14:05:00,63.1,48.5,29.99,SSW,198,1.0,1.0,59,0.00,,,0.00,Wunderground v.1.15,2014-10-20 18:05:00,
2014-10-20 14:15:00,62.2,47.2,29.99,SSW,198,0.0,0.0,58,0.00,,,0.00,Wunderground v.1.15,2014-10-20 18:15:00,
2014-10-20 14:20:00,62.4,47.0,29.99,SSW,198,0.0,0.0,57,0.00,,,0.00,Wunderground v.1.15,2014-10-20 18:20:00,
2014-10-20 14:30:00,63.3,47.3,29.98,South,188,0.0,0.0,56,0.00,,,0.00,Wunderground v.1.15,2014-10-20 18:30:00,
2014-10-20 14:35:00,63.2,46.8,29.97,South,188,0.0,0.0,55,0.00,,,0.00,Wunderground v.1.15,2014-10-20 18:35:00,
2014-10-20 14:45:00,63.3,49.2,29.98,South,189,0.0,0.0,60,0.00,,,0.00,Wunderground v.1.15,2014-10-20 18:45:00,
2014-10-20 14:55:00,63.7,48.2,29.97,South,188,0.0,0.0,57,0.00,,,0.00,Wunderground v.1.15,2014-10-20 18:55:00,
2014-10-20 15:05:00,63.8,48.7,29.97,WSW,249,0.0,0.0,58,0.00,,,0.00,Wunderground v.1.15,2014-10-20 19:05:00,
2014-10-20 15:15:00,64.8,48.7,29.96,WSW,249,0.0,0.0,56,0.00,,,0.00,Wunderground v.1.15,2014-10-20 19:15:00,
2014-10-20 15:25:00,65.9,48.3,29.96,SSW,195,1.0,4.0,53,0.00,,,0.00,Wunderground v.1.15,2014-10-20 19:25:00,
2014-10-20 15:35:00,66.4,48.7,29.96,SSW,205,1.0,1.0,53,0.00,,,0.00,Wunderground v.1.15,2014-10-20 19:35:00,
2014-10-20 15:45:00,67.7,50.5,29.95,North,349,1.0,1.0,54,0.00,,,0.00,Wunderground v.1.15,2014-10-20 19:45:00,
2014-10-20 15:50:00,68.2,50.9,29.95,North,349,1.0,1.0,54,0.00,,,0.00,Wunderground v.1.15,2014-10-20 19:50:00,
2014-10-20 16:00:00,68.6,50.8,29.95,NNW,344,1.0,2.0,53,0.00,,,0.00,Wunderground v.1.15,2014-10-20 20:00:00,
2014-10-20 16:05:00,68.6,50.3,29.95,NNW,348,1.0,2.0,52,0.00,,,0.00,Wunderground v.1.15,2014-10-20 20:05:00,
2014-10-20 16:15:00,68.4,50.6,29.95,NNW,348,0.0,1.0,53,0.00,,,0.00,Wunderground v.1.15,2014-10-20 20:15:00,
2014-10-20 16:20:00,68.5,49.7,29.95,NNW,346,1.0,1.0,51,0.00,,,0.00,Wunderground v.1.15,2014-10-20 20:20:00,
2014-10-20 16:30:00,67.8,49.5,29.95,NNW,347,0.0,0.0,52,0.00,,,0.00,Wunderground v.1.15,2014-10-20 20:30:00,
2014-10-20 16:40:00,67.7,50.5,29.95,NNW,346,1.0,1.0,54,0.00,,,0.00,Wunderground v.1.15,2014-10-20 20:40:00,
2014-10-20 16:50:00,66.9,49.2,29.95,NNW,345,1.0,1.0,53,0.00,,,0.00,Wunderground v.1.15,2014-10-20 20:50:00,
2014-10-20 17:00:00,65.3,49.7,29.95,NNW,347,1.0,1.0,57,0.00,,,0.00,Wunderground v.1.15,2014-10-20 21:00:00,
2014-10-20 17:05:00,64.7,49.1,29.95,NNW,347,1.0,5.0,57,0.00,,,0.00,Wunderground v.1.15,2014-10-20 21:05:00,
2014-10-20 17:15:00,63.2,50.0,29.95,North,350,4.0,7.0,62,0.00,,,0.00,Wunderground v.1.15,2014-10-20 21:15:00,
2014-10-20 17:25:00,62.0,50.5,29.95,North,350,2.0,4.0,66,0.00,,,0.00,Wunderground v.1.15,2014-10-20 21:25:00,
2014-10-20 17:35:00,61.0,50.4,29.96,North,350,1.0,1.0,68,0.00,,,0.00,Wunderground v.1.15,2014-10-20 21:35:00,
2014-10-20 17:45:00,60.4,50.6,29.95,North,350,0.0,0.0,70,0.00,,,0.00,Wunderground v.1.15,2014-10-20 21:45:00,
2014-10-20 17:55:00,59.9,50.5,29.94,North,350,0.0,0.0,71,0.00,,,0.00,Wunderground v.1.15,2014-10-20 21:55:00,
2014-10-20 18:05:00,59.5,50.1,29.95,North,351,0.0,0.0,71,0.00,,,0.00,Wunderground v.1.15,2014-10-20 22:05:00,
2014-10-20 18:15:00,59.0,50.0,29.95,North,350,0.0,0.0,72,0.00,,,0.00,Wunderground v.1.15,2014-10-20 22:15:00,
2014-10-20 18:25:00,58.4,50.9,29.95,North,350,0.0,0.0,76,0.00,,,0.00,Wunderground v.1.15,2014-10-20 22:25:00,
2014-10-20 18:30:00,57.9,51.4,29.95,North,350,0.0,0.0,79,0.00,,,0.00,Wunderground v.1.15,2014-10-20 22:30:00,
2014-10-20 18:40:00,57.0,50.9,29.95,North,350,0.0,0.0,80,0.00,,,0.00,Wunderground v.1.15,2014-10-20 22:40:00,
2014-10-20 18:50:00,56.5,50.4,29.95,North,350,0.0,0.0,80,0.00,,,0.00,Wunderground v.1.15,2014-10-20 22:50:00,
2014-10-20 19:00:00,56.4,50.3,29.95,North,350,0.0,0.0,80,0.00,,,0.00,Wunderground v.1.15,2014-10-20 23:00:00,
2014-10-20 19:05:00,56.3,49.9,29.95,North,350,0.0,0.0,79,0.00,,,0.00,Wunderground v.1.15,2014-10-20 23:05:00,
2014-10-20 19:15:00,56.4,50.0,29.95,North,350,0.0,0.0,79,0.00,,,0.00,Wunderground v.1.15,2014-10-20 23:15:00,
2014-10-20 19:25:00,56.4,48.2,29.96,North,350,0.0,0.0,74,0.00,,,0.00,Wunderground v.1.15,2014-10-20 23:25:00,
2014-10-20 19:35:00,56.5,49.0,29.95,North,350,0.0,0.0,76,0.00,,,0.00,Wunderground v.1.15,2014-10-20 23:35:00,
2014-10-20 19:45:00,56.2,49.1,29.96,North,350,0.0,0.0,77,0.00,,,0.00,Wunderground v.1.15,2014-10-20 23:45:00,
2014-10-20 19:55:00,55.9,48.8,29.97,North,351,0.0,0.0,77,0.00,,,0.00,Wunderground v.1.15,2014-10-20 23:55:00,
2014-10-20 20:00:00,55.9,48.8,29.97,North,350,0.0,0.0,77,0.00,,,0.00,Wunderground v.1.15,2014-10-21 00:00:00,
2014-10-20 20:05:00,55.8,49.4,29.97,North,350,0.0,0.0,79,0.00,,,0.00,Wunderground v.1.15,2014-10-21 00:05:00,
2014-10-20 20:15:00,55.3,49.6,29.97,North,350,0.0,0.0,81,0.00,,,0.00,Wunderground v.1.15,2014-10-21 00:15:00,
2014-10-20 20:25:00,54.9,49.8,29.97,North,350,0.0,0.0,83,0.00,,,0.00,Wunderground v.1.15,2014-10-21 00:25:00,
2014-10-20 20:30:00,54.6,49.9,29.97,North,350,0.0,0.0,84,0.00,,,0.00,Wunderground v.1.15,2014-10-21 00:30:00,
2014-10-20 20:35:00,54.4,49.7,29.97,North,350,0.0,0.0,84,0.00,,,0.00,Wunderground v.1.15,2014-10-21 00:35:00,
2014-10-20 20:40:00,54.3,49.6,29.96,North,350,0.0,0.0,84,0.00,,,0.00,Wunderground v.1.15,2014-10-21 00:40:00,
2014-10-20 20:50:00,54.2,49.5,29.97,North,350,0.0,0.0,84,0.00,,,0.00,Wunderground v.1.15,2014-10-21 00:50:00,
2014-10-20 21:00:00,54.0,49.6,29.97,North,350,0.0,0.0,85,0.00,,,0.00,Wunderground v.1.15,2014-10-21 01:00:00,
2014-10-20 21:05:00,53.9,49.5,29.97,North,350,0.0,0.0,85,0.00,,,0.00,Wunderground v.1.15,2014-10-21 01:05:00,
2014-10-20 21:15:00,53.8,49.7,29.97,North,350,0.0,0.0,86,0.00,,,0.00,Wunderground v.1.15,2014-10-21 01:15:00,
2014-10-20 21:20:00,53.8,49.7,29.97,North,350,0.0,0.0,86,0.00,,,0.00,Wunderground v.1.15,2014-10-21 01:20:00,
2014-10-20 21:30:00,53.7,49.6,29.97,North,350,0.0,0.0,86,0.00,,,0.00,Wunderground v.1.15,2014-10-21 01:30:00,
2014-10-20 21:40:00,53.8,49.7,29.98,North,350,0.0,0.0,86,0.00,,,0.00,Wunderground v.1.15,2014-10-21 01:40:00,
2014-10-20 21:50:00,53.7,49.6,29.98,North,350,0.0,0.0,86,0.00,,,0.00,Wunderground v.1.15,2014-10-21 01:50:00,
2014-10-20 21:55:00,53.6,49.5,29.97,North,350,0.0,0.0,86,0.00,,,0.00,Wunderground v.1.15,2014-10-21 01:55:00,
2014-10-20 22:05:00,53.4,49.6,29.98,North,350,0.0,0.0,87,0.00,,,0.00,Wunderground v.1.15,2014-10-21 02:05:00,
2014-10-20 22:15:00,53.3,49.5,29.98,North,350,0.0,0.0,87,0.00,,,0.00,Wunderground v.1.15,2014-10-21 02:15:00,
2014-10-20 22:20:00,53.2,49.4,29.98,North,350,0.0,0.0,87,0.00,,,0.00,Wunderground v.1.15,2014-10-21 02:20:00,
2014-10-20 22:30:00,53.1,49.3,29.98,North,5,0.0,0.0,87,0.00,,,0.00,Wunderground v.1.15,2014-10-21 02:30:00,
2014-10-20 22:35:00,53.1,49.6,29.98,North,5,0.0,0.0,88,0.00,,,0.00,Wunderground v.1.15,2014-10-21 02:35:00,
2014-10-20 22:45:00,53.0,49.5,29.98,North,5,0.0,0.0,88,0.00,,,0.00,Wunderground v.1.15,2014-10-21 02:45:00,
2014-10-20 22:50:00,52.9,49.4,29.98,North,5,0.0,0.0,88,0.00,,,0.00,Wunderground v.1.15,2014-10-21 02:50:00,
2014-10-20 23:00:00,52.7,49.2,29.98,North,5,0.0,0.0,88,0.00,,,0.00,Wunderground v.1.15,2014-10-21 03:00:00,